Bynum, AL (36253)

3:39 AM CST on January 30, 2015 (GMT -0600)
APRSWXNET Anniston AL US | Change Station
CLOSE
Current Station
Personal Weather Station
Location: Bynum, AL
Elevation: 616 ft
Nearby Weather Stations

Elev 616 ft 33.62 °N, 85.94 °W | Updated 37 minutes ago

Overcast
Overcast
41 °F
Feels Like 41 °F
N
1
Wind Variable Wind from ENE
Gusts 5.0 mph

Today
High -- | Low -- °F
--% Chance of Precip.
Yesterday
High -- | Low -- °F
Precip. -- in
6:41 AM 5:12 PM
Waxing Gibbous, 81% visible
Pressure 30.28 in
Visibility 10.0 miles
Clouds Overcast 3300 ft
Windchill 41 °F
Dew Point 31 °F
Humidity 68%
Rainfall 0.00 in
Snow Depth Not available.
UV 0 out of 12
Pollen 3.90 out of 12
Air Quality Not available.
Flu Activity Not available.
METAR KANB 300853Z AUTO 35010G18KT 330V030 10SM OVC033 06/M02 A3027 RMK AO2 SLP254 T00611022 51019

More Conditions Fewer Conditions

Pressure 30.28 in
Visibility 10.0 miles
Clouds Overcast 3300 ft
Windchill 41 °F
Dew Point 31 °F
Humidity 68%
Rainfall 0.00 in
Snow Depth Not available.
UV 0 out of 12
Pollen 3.90 out of 12
Air Quality Not available.
Flu Activity Not available.
METAR KANB 300853Z AUTO 35010G18KT 330V030 10SM OVC033 06/M02 A3027 RMK AO2 SLP254 T00611022 51019

More Conditions Fewer Conditions

10-Day Weather Forecast

Almanac

Astronomy

Jan. 30, 2015 Rise Set
Actual Time
Civil Twilight
Nautical Twilight
Astronomical Twilight
Moon
Length of Visible Light
Length of Day
Tomorrow will be .
, % of the Moon is Illuminated

Today's Extremes

State Highs State Lows

Community

WunderPhotos

Upload Photos

1,791,737 photos uploaded!

WunderBlogs® & News

Nearby

Air Quality

  Air Quality AQ Index Pollutant
Not available.

Snow Depth

Station Depth Elevation

Earthquake Activity

City Distance Mag. Time & Date
Minimum magnitude displayed is 2.5.

Coastal Water Temperatures

Place Temperature

Nearby Weather Stations